Mount Rainier National Park, WA

09:34 PM PDT die 02o September, anno 2014 (GMT -0700)
RAWS HAGER CREEK WA US | Change Station
CLOSE
Current Station
Personal Weather Stations
Location: Packwood, WA
Elevation: 3600 ft
Nearby Weather Stations

Elev 3600 ft 46.56 °N, 121.63 °W | Updated 41 minutes ago

Plerumque Nubila
Plerumque Nubila
45 °F
Feels Like 42 °F
N
5
Ventus Variabilis Ventus from Magis Eurus quam Auster
Gusts 14.0 mph

Hodie
High -- | Low -- °F
--% Chance of Precip.
Yesterday
High -- | Low -- °F
Precip. -- in
6:28 AM 7:44 PM
First Quarter, 58% visible
Pressio 29.87 in
Visibilitas 10.0 milia passuum
Clouds Plerumque Nubila 700 ft
Plerumque Nubila 1300 ft
Aequaliter Nubila 2800 ft
Frigus Venti 42 °F
Frigus in quo Ros apparet 44 °F
Umor 95%
Rainfall 0.07 in
Snow Depth 0 in , 1 in
UV 0 out of 12
Pollen 2.50 out of 12
Air Quality Not available.
Flu Activity Not available.
SPECI KSMP 030414Z AUTO 32005KT 10SM BKN007 BKN013 OVC028 06/04 A2987 RMK AO2 RAE04 P0000 T00560044 $

More Conditions Fewer Conditions

Pressio 29.87 in
Visibilitas 10.0 milia passuum
Clouds Plerumque Nubila 700 ft
Plerumque Nubila 1300 ft
Aequaliter Nubila 2800 ft
Frigus Venti 42 °F
Frigus in quo Ros apparet 44 °F
Umor 95%
Rainfall 0.07 in
Snow Depth 0 in , 1 in
UV 0 out of 12
Pollen 2.50 out of 12
Air Quality Not available.
Flu Activity Not available.
SPECI KSMP 030414Z AUTO 32005KT 10SM BKN007 BKN013 OVC028 06/04 A2987 RMK AO2 RAE04 P0000 T00560044 $

More Conditions Fewer Conditions

10-Day Weather Forecast

Almanac

Astronomy

Sep. 02, 2014 Rise Set
Actual Time 6:28 AM PDT 7:44 PM PDT
Civil Twilight 5:57 AM PDT 8:15 PM PDT
Nautical Twilight 5:19 AM PDT 8:53 PM PDT
Astronomical Twilight 4:39 AM PDT 9:33 PM PDT
Moon 2:44 PM PDT (9/2) Nulla Occasus Lunae
Length Of Visible Light 14h 18m
Length of Day
13h 15m
Tomorrow will be 3m 14s shorter.
First Quarter, 58% of the Moon is Illuminated
Sep 3
First Quarter
Sep 8
Full
Sep 15
Last Quarter
Sep 24
New
Oct 1
First Quarter

Today's Extremes

State Highs State Lows

Community

WunderPhotos

Upload Photos

1,749,870 photos uploaded!

Nearby

Snow Depth

Station Depth Elevation
Burnt Mountain 0 in 4200 ft
Morse Lake 1 in 5400 ft
Pigtail Peak 0 in 5900 ft
White Pass E.S. 0 in 4500 ft
Bumping Ridge 0 in 4600 ft

Earthquake Activity

City Distance Mag. Time & Date
No recent earthquake activity has been reported nearby.
Minimum magnitude displayed is 2.5.

Coastal Water Temperatures

Locus Calor
No Stations Reporting

Nearby Weather Stations